sensor_id;sensor_type;location;lat;lon;timestamp;pressure;altitude;pressure_sealevel;temperature;humidity
8573;BME280;4324;42.012;24.872;2023-04-24T00:01:04;98745.66;;;12.76;61.19
8573;BME280;4324;42.012;24.872;2023-04-24T00:03:32;98747.28;;;12.77;61.23
8573;BME280;4324;42.012;24.872;2023-04-24T00:06:00;98747.66;;;12.74;61.28
8573;BME280;4324;42.012;24.872;2023-04-24T00:08:27;98757.00;;;12.70;61.53
8573;BME280;4324;42.012;24.872;2023-04-24T00:10:54;98752.53;;;12.70;61.66
8573;BME280;4324;42.012;24.872;2023-04-24T00:13:23;98736.59;;;12.55;61.21
8573;BME280;4324;42.012;24.872;2023-04-24T00:15:49;98769.66;;;12.68;60.87
8573;BME280;4324;42.012;24.872;2023-04-24T00:18:17;98771.03;;;12.64;60.78
8573;BME280;4324;42.012;24.872;2023-04-24T00:20:44;98765.09;;;12.47;60.85
8573;BME280;4324;42.012;24.872;2023-04-24T00:23:12;98761.44;;;12.33;60.61
8573;BME280;4324;42.012;24.872;2023-04-24T00:25:39;98762.34;;;12.25;60.59
8573;BME280;4324;42.012;24.872;2023-04-24T00:28:06;98776.16;;;12.21;60.72
8573;BME280;4324;42.012;24.872;2023-04-24T00:30:34;98770.09;;;12.12;61.33
8573;BME280;4324;42.012;24.872;2023-04-24T00:33:01;98769.63;;;12.08;61.31
8573;BME280;4324;42.012;24.872;2023-04-24T00:35:28;98777.25;;;12.11;61.42
8573;BME280;4324;42.012;24.872;2023-04-24T00:37:55;98781.00;;;12.17;61.16
8573;BME280;4324;42.012;24.872;2023-04-24T00:40:22;98774.88;;;12.17;61.17
8573;BME280;4324;42.012;24.872;2023-04-24T00:42:49;98716.16;;;11.82;61.17
8573;BME280;4324;42.012;24.872;2023-04-24T00:45:16;98763.63;;;12.15;61.21
8573;BME280;4324;42.012;24.872;2023-04-24T00:47:45;98766.19;;;12.23;60.68
8573;BME280;4324;42.012;24.872;2023-04-24T00:50:14;98745.75;;;12.08;60.55
8573;BME280;4324;42.012;24.872;2023-04-24T00:52:41;98765.56;;;12.21;60.45
8573;BME280;4324;42.012;24.872;2023-04-24T00:55:08;98742.63;;;12.05;60.57
8573;BME280;4324;42.012;24.872;2023-04-24T00:57:36;98752.06;;;12.07;60.59
8573;BME280;4324;42.012;24.872;2023-04-24T01:00:04;98742.47;;;12.06;60.12
8573;BME280;4324;42.012;24.872;2023-04-24T01:02:38;98739.25;;;11.96;60.13
8573;BME280;4324;42.012;24.872;2023-04-24T01:05:10;98748.84;;;11.97;60.93
8573;BME280;4324;42.012;24.872;2023-04-24T01:07:38;98746.00;;;11.84;61.09
8573;BME280;4324;42.012;24.872;2023-04-24T01:10:07;98714.47;;;11.66;60.65
8573;BME280;4324;42.012;24.872;2023-04-24T01:12:34;98737.22;;;11.83;60.35
8573;BME280;4324;42.012;24.872;2023-04-24T01:15:01;98727.50;;;11.76;60.48
8573;BME280;4324;42.012;24.872;2023-04-24T01:17:30;98730.31;;;11.74;60.46
8573;BME280;4324;42.012;24.872;2023-04-24T01:19:58;98749.34;;;11.78;60.74
8573;BME280;4324;42.012;24.872;2023-04-24T01:22:26;98746.13;;;11.68;60.05
8573;BME280;4324;42.012;24.872;2023-04-24T01:24:53;98746.91;;;11.53;60.08
8573;BME280;4324;42.012;24.872;2023-04-24T01:27:20;98738.06;;;11.38;60.73
8573;BME280;4324;42.012;24.872;2023-04-24T01:29:47;98763.13;;;11.35;60.88
8573;BME280;4324;42.012;24.872;2023-04-24T01:32:17;98745.19;;;11.14;61.26
8573;BME280;4324;42.012;24.872;2023-04-24T01:34:45;98684.19;;;10.77;60.99
8573;BME280;4324;42.012;24.872;2023-04-24T01:37:13;98766.66;;;11.28;60.99
8573;BME280;4324;42.012;24.872;2023-04-24T01:39:42;98750.16;;;11.18;61.12
8573;BME280;4324;42.012;24.872;2023-04-24T01:42:09;98763.00;;;11.29;61.20
8573;BME280;4324;42.012;24.872;2023-04-24T01:44:36;98770.06;;;11.36;61.35
8573;BME280;4324;42.012;24.872;2023-04-24T01:47:04;98751.94;;;11.25;61.34
8573;BME280;4324;42.012;24.872;2023-04-24T01:49:32;98715.94;;;11.08;61.22
8573;BME280;4324;42.012;24.872;2023-04-24T01:52:00;98754.03;;;11.30;61.63
8573;BME280;4324;42.012;24.872;2023-04-24T01:54:27;98742.03;;;11.19;61.45
8573;BME280;4324;42.012;24.872;2023-04-24T01:56:55;98785.63;;;11.39;61.76
8573;BME280;4324;42.012;24.872;2023-04-24T01:59:23;98777.69;;;11.39;61.63
8573;BME280;4324;42.012;24.872;2023-04-24T02:01:51;98759.34;;;11.30;61.33
8573;BME280;4324;42.012;24.872;2023-04-24T02:04:18;98774.34;;;11.37;61.29
8573;BME280;4324;42.012;24.872;2023-04-24T02:06:45;98740.19;;;11.20;61.60
8573;BME280;4324;42.012;24.872;2023-04-24T02:09:12;98764.56;;;11.38;61.24
8573;BME280;4324;42.012;24.872;2023-04-24T02:11:39;98745.75;;;11.33;61.08
8573;BME280;4324;42.012;24.872;2023-04-24T02:14:07;98745.06;;;11.31;61.10
8573;BME280;4324;42.012;24.872;2023-04-24T02:16:34;98754.38;;;11.27;61.61
8573;BME280;4324;42.012;24.872;2023-04-24T02:19:01;98756.06;;;11.28;61.45
8573;BME280;4324;42.012;24.872;2023-04-24T02:21:29;98760.97;;;11.31;61.33
8573;BME280;4324;42.012;24.872;2023-04-24T02:23:56;98738.19;;;11.22;61.68
8573;BME280;4324;42.012;24.872;2023-04-24T02:26:23;98748.38;;;11.33;61.72
8573;BME280;4324;42.012;24.872;2023-04-24T02:28:50;98733.91;;;11.21;61.66
8573;BME280;4324;42.012;24.872;2023-04-24T02:31:18;98745.63;;;11.26;61.56
8573;BME280;4324;42.012;24.872;2023-04-24T02:33:45;98729.31;;;11.14;61.73
8573;BME280;4324;42.012;24.872;2023-04-24T02:36:12;98734.44;;;11.16;61.95
8573;BME280;4324;42.012;24.872;2023-04-24T02:38:39;98739.03;;;11.22;62.30
8573;BME280;4324;42.012;24.872;2023-04-24T02:41:06;98738.31;;;11.28;61.89
8573;BME280;4324;42.012;24.872;2023-04-24T02:43:33;98744.63;;;11.27;61.63
8573;BME280;4324;42.012;24.872;2023-04-24T02:46:00;98689.69;;;10.98;61.52
8573;BME280;4324;42.012;24.872;2023-04-24T02:48:28;98724.47;;;11.18;62.04
8573;BME280;4324;42.012;24.872;2023-04-24T02:50:55;98743.31;;;11.23;61.84
8573;BME280;4324;42.012;24.872;2023-04-24T02:53:23;98736.38;;;11.22;61.48
8573;BME280;4324;42.012;24.872;2023-04-24T02:55:50;98730.25;;;11.22;61.35
8573;BME280;4324;42.012;24.872;2023-04-24T02:58:17;98659.06;;;10.73;61.70
8573;BME280;4324;42.012;24.872;2023-04-24T03:00:45;98742.50;;;11.23;61.81
8573;BME280;4324;42.012;24.872;2023-04-24T03:03:12;98746.16;;;11.22;61.75
8573;BME280;4324;42.012;24.872;2023-04-24T03:05:41;98717.28;;;11.04;61.59
8573;BME280;4324;42.012;24.872;2023-04-24T03:08:08;98738.38;;;11.20;61.30
8573;BME280;4324;42.012;24.872;2023-04-24T03:10:35;98738.38;;;11.20;61.53
8573;BME280;4324;42.012;24.872;2023-04-24T03:13:02;98712.81;;;11.04;61.50
8573;BME280;4324;42.012;24.872;2023-04-24T03:15:29;98749.16;;;11.19;61.24
8573;BME280;4324;42.012;24.872;2023-04-24T03:17:56;98717.75;;;11.07;60.84
8573;BME280;4324;42.012;24.872;2023-04-24T03:20:23;98746.69;;;11.17;60.88
8573;BME280;4324;42.012;24.872;2023-04-24T03:22:51;98724.06;;;11.06;61.13
8573;BME280;4324;42.012;24.872;2023-04-24T03:25:18;98722.44;;;11.05;61.31
8573;BME280;4324;42.012;24.872;2023-04-24T03:27:45;98734.44;;;11.16;61.18
8573;BME280;4324;42.012;24.872;2023-04-24T03:30:12;98691.03;;;10.94;61.01
8573;BME280;4324;42.012;24.872;2023-04-24T03:32:39;98730.38;;;11.05;61.25
8573;BME280;4324;42.012;24.872;2023-04-24T03:35:06;98739.78;;;11.08;61.31
8573;BME280;4324;42.012;24.872;2023-04-24T03:37:33;98736.91;;;10.95;61.66
8573;BME280;4324;42.012;24.872;2023-04-24T03:40:02;98724.03;;;10.83;61.50
8573;BME280;4324;42.012;24.872;2023-04-24T03:42:29;98758.56;;;10.98;61.64
8573;BME280;4324;42.012;24.872;2023-04-24T03:44:56;98728.81;;;10.88;62.09
8573;BME280;4324;42.012;24.872;2023-04-24T03:47:23;98746.63;;;11.02;62.19
8573;BME280;4324;42.012;24.872;2023-04-24T03:49:50;98751.03;;;11.10;62.37
8573;BME280;4324;42.012;24.872;2023-04-24T03:52:17;98723.31;;;10.98;61.92
8573;BME280;4324;42.012;24.872;2023-04-24T03:54:44;98685.81;;;10.78;62.25
8573;BME280;4324;42.012;24.872;2023-04-24T03:57:12;98760.97;;;11.31;62.66
8573;BME280;4324;42.012;24.872;2023-04-24T03:59:39;98762.31;;;11.35;62.64
8573;BME280;4324;42.012;24.872;2023-04-24T04:02:06;98760.75;;;11.41;62.44
8573;BME280;4324;42.012;24.872;2023-04-24T04:04:33;98754.75;;;11.47;62.21
8573;BME280;4324;42.012;24.872;2023-04-24T04:07:00;98757.53;;;11.53;62.85
8573;BME280;4324;42.012;24.872;2023-04-24T04:09:28;98752.50;;;11.58;62.89
8573;BME280;4324;42.012;24.872;2023-04-24T04:11:55;98756.38;;;11.71;62.92
8573;BME280;4324;42.012;24.872;2023-04-24T04:14:23;98740.75;;;11.76;62.50
8573;BME280;4324;42.012;24.872;2023-04-24T04:16:50;98743.16;;;11.85;62.49
8573;BME280;4324;42.012;24.872;2023-04-24T04:19:17;98731.03;;;11.91;62.75
8573;BME280;4324;42.012;24.872;2023-04-24T04:21:44;98712.50;;;11.83;62.66
8573;BME280;4324;42.012;24.872;2023-04-24T04:24:16;98740.84;;;12.05;62.75
8573;BME280;4324;42.012;24.872;2023-04-24T04:26:43;98745.69;;;12.17;62.58
8573;BME280;4324;42.012;24.872;2023-04-24T04:29:11;98741.47;;;12.22;62.39
8573;BME280;4324;42.012;24.872;2023-04-24T04:31:40;98745.88;;;12.30;62.64
8573;BME280;4324;42.012;24.872;2023-04-24T04:34:06;98745.13;;;12.36;62.51
8573;BME280;4324;42.012;24.872;2023-04-24T04:36:34;98756.03;;;12.41;62.36
8573;BME280;4324;42.012;24.872;2023-04-24T04:39:02;98754.13;;;12.50;62.31
8573;BME280;4324;42.012;24.872;2023-04-24T04:41:29;98753.81;;;12.59;62.03
8573;BME280;4324;42.012;24.872;2023-04-24T04:43:56;98729.00;;;12.52;62.18
8573;BME280;4324;42.012;24.872;2023-04-24T04:46:24;98765.16;;;12.83;62.05
8573;BME280;4324;42.012;24.872;2023-04-24T04:48:53;98738.97;;;12.80;62.09
8573;BME280;4324;42.012;24.872;2023-04-24T04:51:22;98753.34;;;13.07;61.61
8573;BME280;4324;42.012;24.872;2023-04-24T04:53:48;98773.56;;;13.23;61.58
8573;BME280;4324;42.012;24.872;2023-04-24T04:56:15;98770.38;;;13.27;61.06
8573;BME280;4324;42.012;24.872;2023-04-24T04:58:42;98773.56;;;13.23;61.27
8573;BME280;4324;42.012;24.872;2023-04-24T05:01:09;98768.38;;;13.15;61.32
8573;BME280;4324;42.012;24.872;2023-04-24T05:03:36;98771.16;;;13.06;62.03
8573;BME280;4324;42.012;24.872;2023-04-24T05:06:05;98772.81;;;12.93;62.56
8573;BME280;4324;42.012;24.872;2023-04-24T05:08:32;98761.47;;;12.84;63.09
8573;BME280;4324;42.012;24.872;2023-04-24T05:10:59;98761.72;;;12.89;63.24
8573;BME280;4324;42.012;24.872;2023-04-24T05:13:26;98771.88;;;13.00;63.25
8573;BME280;4324;42.012;24.872;2023-04-24T05:15:53;98716.97;;;12.71;63.23
8573;BME280;4324;42.012;24.872;2023-04-24T05:18:20;98757.03;;;13.06;63.45
8573;BME280;4324;42.012;24.872;2023-04-24T05:20:46;98757.09;;;13.13;63.61
8573;BME280;4324;42.012;24.872;2023-04-24T05:23:15;98759.00;;;13.19;63.90
8573;BME280;4324;42.012;24.872;2023-04-24T05:25:41;98753.31;;;13.22;63.72
8573;BME280;4324;42.012;24.872;2023-04-24T05:28:08;98744.16;;;13.24;63.95
8573;BME280;4324;42.012;24.872;2023-04-24T05:30:36;98741.56;;;13.31;64.11
8573;BME280;4324;42.012;24.872;2023-04-24T05:33:02;98761.44;;;13.56;63.81
8573;BME280;4324;42.012;24.872;2023-04-24T05:35:29;98751.06;;;13.62;63.86
8573;BME280;4324;42.012;24.872;2023-04-24T05:37:56;98733.78;;;13.51;64.05
8573;BME280;4324;42.012;24.872;2023-04-24T05:40:24;98746.50;;;13.55;64.41
8573;BME280;4324;42.012;24.872;2023-04-24T05:42:51;98753.78;;;13.68;64.24
8573;BME280;4324;42.012;24.872;2023-04-24T05:45:18;98753.69;;;13.83;63.90
8573;BME280;4324;42.012;24.872;2023-04-24T05:47:45;98742.91;;;13.91;63.77
8573;BME280;4324;42.012;24.872;2023-04-24T05:50:13;98743.25;;;14.10;63.29
8573;BME280;4324;42.012;24.872;2023-04-24T05:52:40;98742.31;;;14.31;63.08
8573;BME280;4324;42.012;24.872;2023-04-24T05:55:08;98730.28;;;14.41;62.90
8573;BME280;4324;42.012;24.872;2023-04-24T05:57:36;98717.69;;;14.57;62.59
8573;BME280;4324;42.012;24.872;2023-04-24T06:00:04;98731.34;;;14.88;62.34
8573;BME280;4324;42.012;24.872;2023-04-24T06:02:31;98724.44;;;15.07;62.04
8573;BME280;4324;42.012;24.872;2023-04-24T06:04:58;98729.19;;;15.25;61.91
8573;BME280;4324;42.012;24.872;2023-04-24T06:07:25;98722.03;;;15.39;61.55
8573;BME280;4324;42.012;24.872;2023-04-24T06:09:52;98723.25;;;15.49;61.61
8573;BME280;4324;42.012;24.872;2023-04-24T06:12:19;98721.63;;;15.55;61.31
8573;BME280;4324;42.012;24.872;2023-04-24T06:14:48;98727.97;;;15.61;61.24
8573;BME280;4324;42.012;24.872;2023-04-24T06:17:15;98722.63;;;15.61;61.21
8573;BME280;4324;42.012;24.872;2023-04-24T06:19:42;98715.06;;;15.51;61.10
8573;BME280;4324;42.012;24.872;2023-04-24T06:22:09;98720.41;;;15.58;60.92
8573;BME280;4324;42.012;24.872;2023-04-24T06:24:36;98717.09;;;15.56;61.06
8573;BME280;4324;42.012;24.872;2023-04-24T06:27:03;98703.13;;;15.34;60.86
8573;BME280;4324;42.012;24.872;2023-04-24T06:29:30;98722.84;;;15.33;60.83
8573;BME280;4324;42.012;24.872;2023-04-24T06:31:58;98728.97;;;15.20;60.45
8573;BME280;4324;42.012;24.872;2023-04-24T06:34:25;98716.19;;;14.95;60.48
8573;BME280;4324;42.012;24.872;2023-04-24T06:36:52;98741.00;;;14.89;60.64
8573;BME280;4324;42.012;24.872;2023-04-24T06:39:19;98743.63;;;14.83;60.58
8573;BME280;4324;42.012;24.872;2023-04-24T06:41:45;98747.53;;;14.80;60.94
8573;BME280;4324;42.012;24.872;2023-04-24T06:44:12;98742.78;;;14.75;61.46
8573;BME280;4324;42.012;24.872;2023-04-24T06:46:40;98751.63;;;14.83;61.72
8573;BME280;4324;42.012;24.872;2023-04-24T06:49:08;98733.38;;;14.80;62.27
8573;BME280;4324;42.012;24.872;2023-04-24T06:51:35;98733.84;;;15.03;62.24
8573;BME280;4324;42.012;24.872;2023-04-24T06:54:02;98742.50;;;15.18;62.17
8573;BME280;4324;42.012;24.872;2023-04-24T06:56:29;98746.22;;;15.37;62.05
8573;BME280;4324;42.012;24.872;2023-04-24T06:58:56;98740.53;;;15.54;61.54
8573;BME280;4324;42.012;24.872;2023-04-24T07:01:22;98730.47;;;15.62;61.51
8573;BME280;4324;42.012;24.872;2023-04-24T07:03:49;98733.56;;;15.92;61.39
8573;BME280;4324;42.012;24.872;2023-04-24T07:06:17;98728.56;;;16.16;60.89
8573;BME280;4324;42.012;24.872;2023-04-24T07:08:49;98733.91;;;16.29;60.49
8573;BME280;4324;42.012;24.872;2023-04-24T07:11:16;98734.66;;;16.50;60.25
8573;BME280;4324;42.012;24.872;2023-04-24T07:13:42;98731.72;;;16.64;60.05
8573;BME280;4324;42.012;24.872;2023-04-24T07:16:09;98723.84;;;16.89;59.63
8573;BME280;4324;42.012;24.872;2023-04-24T07:18:36;98727.63;;;17.13;59.20
8573;BME280;4324;42.012;24.872;2023-04-24T07:21:03;98735.13;;;17.30;58.95
8573;BME280;4324;42.012;24.872;2023-04-24T07:23:32;98734.00;;;17.44;58.42
8573;BME280;4324;42.012;24.872;2023-04-24T07:25:59;98714.94;;;17.34;57.89
8573;BME280;4324;42.012;24.872;2023-04-24T07:28:26;98736.31;;;17.40;57.88
8573;BME280;4324;42.012;24.872;2023-04-24T07:30:56;98726.88;;;17.31;57.96
8573;BME280;4324;42.012;24.872;2023-04-24T07:33:24;98722.38;;;17.32;58.06
8573;BME280;4324;42.012;24.872;2023-04-24T07:35:51;98730.47;;;17.50;57.87
8573;BME280;4324;42.012;24.872;2023-04-24T07:38:18;98728.34;;;17.59;57.46
8573;BME280;4324;42.012;24.872;2023-04-24T07:40:49;98720.75;;;17.56;57.43
8573;BME280;4324;42.012;24.872;2023-04-24T07:43:15;98720.19;;;17.72;57.23
8573;BME280;4324;42.012;24.872;2023-04-24T07:45:42;98706.34;;;17.82;56.91
8573;BME280;4324;42.012;24.872;2023-04-24T07:48:09;98730.75;;;18.17;56.63
8573;BME280;4324;42.012;24.872;2023-04-24T07:50:36;98717.50;;;18.22;56.19
8573;BME280;4324;42.012;24.872;2023-04-24T07:53:03;98733.44;;;18.35;56.22
8573;BME280;4324;42.012;24.872;2023-04-24T07:55:30;98735.97;;;18.49;56.00
8573;BME280;4324;42.012;24.872;2023-04-24T07:57:58;98729.84;;;18.60;55.78
8573;BME280;4324;42.012;24.872;2023-04-24T08:00:25;98726.88;;;18.68;55.62
8573;BME280;4324;42.012;24.872;2023-04-24T08:02:52;98737.22;;;18.65;55.58
8573;BME280;4324;42.012;24.872;2023-04-24T08:05:19;98718.56;;;18.40;55.61
8573;BME280;4324;42.012;24.872;2023-04-24T08:07:46;98672.78;;;17.79;56.16
8573;BME280;4324;42.012;24.872;2023-04-24T08:10:14;98704.41;;;17.64;56.75
8573;BME280;4324;42.012;24.872;2023-04-24T08:12:41;98725.94;;;17.51;57.07
8573;BME280;4324;42.012;24.872;2023-04-24T08:15:10;98727.91;;;17.30;57.73
8573;BME280;4324;42.012;24.872;2023-04-24T08:17:37;98708.44;;;17.16;57.90
8573;BME280;4324;42.012;24.872;2023-04-24T08:20:05;98671.38;;;16.95;58.04
8573;BME280;4324;42.012;24.872;2023-04-24T08:22:35;98722.53;;;17.37;57.95
8573;BME280;4324;42.012;24.872;2023-04-24T08:25:02;98716.47;;;17.48;57.89
8573;BME280;4324;42.012;24.872;2023-04-24T08:27:29;98720.50;;;17.57;57.81
8573;BME280;4324;42.012;24.872;2023-04-24T08:29:57;98709.06;;;17.50;57.56
8573;BME280;4324;42.012;24.872;2023-04-24T08:32:25;98705.28;;;17.58;57.59
8573;BME280;4324;42.012;24.872;2023-04-24T08:34:54;98719.59;;;17.77;57.61
8573;BME280;4324;42.012;24.872;2023-04-24T08:37:21;98702.56;;;17.89;57.45
8573;BME280;4324;42.012;24.872;2023-04-24T08:39:49;98696.34;;;17.96;57.29
8573;BME280;4324;42.012;24.872;2023-04-24T08:42:16;98698.22;;;18.13;57.25
8573;BME280;4324;42.012;24.872;2023-04-24T08:44:44;98696.13;;;18.16;57.02
8573;BME280;4324;42.012;24.872;2023-04-24T08:47:11;98678.84;;;18.11;56.90
8573;BME280;4324;42.012;24.872;2023-04-24T08:49:40;98699.25;;;18.31;56.78
8573;BME280;4324;42.012;24.872;2023-04-24T08:52:07;98679.00;;;18.35;56.66
8573;BME280;4324;42.012;24.872;2023-04-24T08:54:34;98685.28;;;18.29;56.48
8573;BME280;4324;42.012;24.872;2023-04-24T08:57:02;98656.44;;;18.24;56.52
8573;BME280;4324;42.012;24.872;2023-04-24T08:59:31;98665.81;;;18.52;56.49
8573;BME280;4324;42.012;24.872;2023-04-24T09:01:58;98663.06;;;18.77;55.92
8573;BME280;4324;42.012;24.872;2023-04-24T09:04:25;98659.25;;;18.96;55.77
8573;BME280;4324;42.012;24.872;2023-04-24T09:06:55;98649.88;;;19.17;55.21
8573;BME280;4324;42.012;24.872;2023-04-24T09:09:23;98650.78;;;19.11;54.80
8573;BME280;4324;42.012;24.872;2023-04-24T09:11:51;98624.28;;;18.91;54.77
8573;BME280;4324;42.012;24.872;2023-04-24T09:14:20;98634.63;;;18.88;54.76
8573;BME280;4324;42.012;24.872;2023-04-24T09:16:48;98649.94;;;18.99;55.02
8573;BME280;4324;42.012;24.872;2023-04-24T09:19:15;98656.22;;;18.93;53.94
8573;BME280;4324;42.012;24.872;2023-04-24T09:21:45;98647.44;;;18.85;54.07
8573;BME280;4324;42.012;24.872;2023-04-24T09:24:17;98643.47;;;18.76;54.09
8573;BME280;4324;42.012;24.872;2023-04-24T09:26:45;98630.50;;;18.73;54.01
8573;BME280;4324;42.012;24.872;2023-04-24T09:29:15;98648.50;;;18.84;54.10
8573;BME280;4324;42.012;24.872;2023-04-24T09:31:42;98654.00;;;18.90;53.94
8573;BME280;4324;42.012;24.872;2023-04-24T09:34:09;98623.53;;;18.84;54.13
8573;BME280;4324;42.012;24.872;2023-04-24T09:36:37;98641.63;;;18.89;54.08
8573;BME280;4324;42.012;24.872;2023-04-24T09:39:05;98641.28;;;18.85;54.02
8573;BME280;4324;42.012;24.872;2023-04-24T09:41:43;98644.16;;;18.83;54.06
8573;BME280;4324;42.012;24.872;2023-04-24T09:44:12;98623.47;;;18.72;54.34
8573;BME280;4324;42.012;24.872;2023-04-24T09:46:41;98631.72;;;18.89;54.40
8573;BME280;4324;42.012;24.872;2023-04-24T09:49:09;98609.53;;;18.82;54.19
8573;BME280;4324;42.012;24.872;2023-04-24T09:51:37;98612.88;;;19.07;54.17
8573;BME280;4324;42.012;24.872;2023-04-24T09:54:13;98629.81;;;19.31;54.20
8573;BME280;4324;42.012;24.872;2023-04-24T09:56:43;98623.06;;;19.41;53.85
8573;BME280;4324;42.012;24.872;2023-04-24T09:59:12;98609.53;;;19.47;54.23
8573;BME280;4324;42.012;24.872;2023-04-24T10:01:39;98602.28;;;19.59;53.75
8573;BME280;4324;42.012;24.872;2023-04-24T10:04:15;98612.00;;;19.84;53.54
8573;BME280;4324;42.012;24.872;2023-04-24T10:06:44;98613.59;;;19.97;53.43
8573;BME280;4324;42.012;24.872;2023-04-24T10:09:11;98593.88;;;19.91;53.17
8573;BME280;4324;42.012;24.872;2023-04-24T10:11:43;98603.22;;;19.89;53.15
8573;BME280;4324;42.012;24.872;2023-04-24T10:14:12;98610.00;;;19.79;53.35
8573;BME280;4324;42.012;24.872;2023-04-24T10:16:40;98593.09;;;19.67;53.50
8573;BME280;4324;42.012;24.872;2023-04-24T10:19:07;98608.63;;;19.77;53.61
8573;BME280;4324;42.012;24.872;2023-04-24T10:21:35;98610.72;;;19.75;53.67
8573;BME280;4324;42.012;24.872;2023-04-24T10:24:04;98607.22;;;19.74;53.70
8573;BME280;4324;42.012;24.872;2023-04-24T10:26:33;98599.59;;;19.83;53.75
8573;BME280;4324;42.012;24.872;2023-04-24T10:29:02;98577.63;;;19.86;53.72
8573;BME280;4324;42.012;24.872;2023-04-24T10:31:31;98576.69;;;20.04;53.55
8573;BME280;4324;42.012;24.872;2023-04-24T10:33:59;98582.34;;;20.19;53.54
8573;BME280;4324;42.012;24.872;2023-04-24T10:36:29;98585.34;;;20.35;53.44
8573;BME280;4324;42.012;24.872;2023-04-24T10:39:00;98562.75;;;20.47;53.09
8573;BME280;4324;42.012;24.872;2023-04-24T10:41:30;98566.59;;;20.51;52.99
8573;BME280;4324;42.012;24.872;2023-04-24T10:44:12;98554.34;;;20.44;53.06
8573;BME280;4324;42.012;24.872;2023-04-24T10:46:44;98566.47;;;20.46;53.06
8573;BME280;4324;42.012;24.872;2023-04-24T10:49:11;98554.81;;;20.41;53.05
8573;BME280;4324;42.012;24.872;2023-04-24T10:51:46;98552.94;;;20.41;53.13
8573;BME280;4324;42.012;24.872;2023-04-24T10:54:24;98543.00;;;20.42;53.21
8573;BME280;4324;42.012;24.872;2023-04-24T10:56:52;98549.75;;;20.56;53.09
8573;BME280;4324;42.012;24.872;2023-04-24T10:59:27;98536.38;;;20.61;53.06
8573;BME280;4324;42.012;24.872;2023-04-24T11:02:02;98549.03;;;20.94;52.78
8573;BME280;4324;42.012;24.872;2023-04-24T11:04:31;98552.81;;;21.10;52.49
8573;BME280;4324;42.012;24.872;2023-04-24T11:06:58;98552.88;;;21.15;52.19
8573;BME280;4324;42.012;24.872;2023-04-24T11:09:26;98547.88;;;21.24;52.15
8573;BME280;4324;42.012;24.872;2023-04-24T11:12:03;98547.72;;;21.31;51.90
8573;BME280;4324;42.012;24.872;2023-04-24T11:14:59;98546.03;;;21.41;51.99
8573;BME280;4324;42.012;24.872;2023-04-24T11:17:30;98535.91;;;21.48;51.89
8573;BME280;4324;42.012;24.872;2023-04-24T11:20:01;98536.22;;;21.52;51.64
8573;BME280;4324;42.012;24.872;2023-04-24T11:22:30;98525.50;;;21.57;51.80
8573;BME280;4324;42.012;24.872;2023-04-24T11:25:00;98508.34;;;21.63;51.99
8573;BME280;4324;42.012;24.872;2023-04-24T11:27:30;98509.44;;;21.84;51.69
8573;BME280;4324;42.012;24.872;2023-04-24T11:30:03;98497.59;;;21.85;51.81
8573;BME280;4324;42.012;24.872;2023-04-24T11:32:34;98501.09;;;21.86;51.71
8573;BME280;4324;42.012;24.872;2023-04-24T11:35:17;98487.13;;;21.67;52.14
8573;BME280;4324;42.012;24.872;2023-04-24T11:37:47;98470.13;;;21.44;52.27
8573;BME280;4324;42.012;24.872;2023-04-24T11:40:16;98493.94;;;21.53;52.27
8573;BME280;4324;42.012;24.872;2023-04-24T11:42:44;98488.16;;;21.44;52.52
8573;BME280;4324;42.012;24.872;2023-04-24T11:45:14;98508.00;;;21.38;52.49
8573;BME280;4324;42.012;24.872;2023-04-24T11:47:42;98492.75;;;21.26;52.77
8573;BME280;4324;42.012;24.872;2023-04-24T11:50:11;98507.50;;;21.41;52.92
8573;BME280;4324;42.012;24.872;2023-04-24T11:52:40;98492.75;;;21.43;52.84
8573;BME280;4324;42.012;24.872;2023-04-24T11:55:12;98468.81;;;21.47;52.78
8573;BME280;4324;42.012;24.872;2023-04-24T11:57:51;98448.19;;;21.80;52.64
8573;BME280;4324;42.012;24.872;2023-04-24T12:00:22;98468.13;;;22.28;52.64
8573;BME280;4324;42.012;24.872;2023-04-24T12:02:50;98430.56;;;22.48;51.99
8573;BME280;4324;42.012;24.872;2023-04-24T12:05:20;98457.13;;;22.99;51.41
8573;BME280;4324;42.012;24.872;2023-04-24T12:07:47;98432.97;;;23.19;50.90
8573;BME280;4324;42.012;24.872;2023-04-24T12:10:19;98429.03;;;23.47;50.71
8573;BME280;4324;42.012;24.872;2023-04-24T12:12:46;98431.25;;;23.60;50.32
8573;BME280;4324;42.012;24.872;2023-04-24T12:15:16;98430.25;;;23.66;50.23
8573;BME280;4324;42.012;24.872;2023-04-24T12:17:45;98424.03;;;23.71;50.04
8573;BME280;4324;42.012;24.872;2023-04-24T12:20:12;98417.28;;;23.74;49.57
8573;BME280;4324;42.012;24.872;2023-04-24T12:22:43;98406.19;;;23.75;49.46
8573;BME280;4324;42.012;24.872;2023-04-24T12:25:12;98409.47;;;23.77;49.23
8573;BME280;4324;42.012;24.872;2023-04-24T12:27:39;98401.06;;;23.79;49.12
8573;BME280;4324;42.012;24.872;2023-04-24T12:30:10;98393.78;;;23.74;49.39
8573;BME280;4324;42.012;24.872;2023-04-24T12:32:41;98383.44;;;23.61;49.18
8573;BME280;4324;42.012;24.872;2023-04-24T12:35:10;98386.94;;;23.51;48.98
8573;BME280;4324;42.012;24.872;2023-04-24T12:37:37;98371.19;;;23.33;49.37
8573;BME280;4324;42.012;24.872;2023-04-24T12:40:07;98363.63;;;23.35;49.50
8573;BME280;4324;42.012;24.872;2023-04-24T12:42:36;98356.06;;;23.42;49.25
8573;BME280;4324;42.012;24.872;2023-04-24T12:45:08;98365.03;;;23.58;49.13
8573;BME280;4324;42.012;24.872;2023-04-24T12:47:38;98333.13;;;23.50;49.32
8573;BME280;4324;42.012;24.872;2023-04-24T12:50:06;98352.88;;;23.65;48.86
8573;BME280;4324;42.012;24.872;2023-04-24T12:52:34;98343.66;;;23.46;48.74
8573;BME280;4324;42.012;24.872;2023-04-24T12:55:01;98340.97;;;23.46;48.90
8573;BME280;4324;42.012;24.872;2023-04-24T12:57:29;98335.03;;;23.54;48.78
8573;BME280;4324;42.012;24.872;2023-04-24T12:59:57;98341.56;;;23.63;48.46
8573;BME280;4324;42.012;24.872;2023-04-24T13:02:26;98332.34;;;23.59;48.34
8573;BME280;4324;42.012;24.872;2023-04-24T13:04:53;98322.59;;;23.53;48.46
8573;BME280;4324;42.012;24.872;2023-04-24T13:07:20;98319.38;;;23.51;48.33
8573;BME280;4324;42.012;24.872;2023-04-24T13:09:50;98295.84;;;23.36;47.96
8573;BME280;4324;42.012;24.872;2023-04-24T13:12:17;98317.19;;;23.53;48.13
8573;BME280;4324;42.012;24.872;2023-04-24T13:14:44;98284.75;;;23.43;47.73